createdAt,value
2019-01-24T00:00:31.873Z,1000.71
2019-01-24T00:01:31.860Z,1000.74
2019-01-24T00:02:31.863Z,1000.77
2019-01-24T00:03:31.837Z,1000.77
2019-01-24T00:04:31.826Z,1000.80
2019-01-24T00:05:31.814Z,1000.78
2019-01-24T00:06:31.803Z,1000.84
2019-01-24T00:07:31.804Z,1000.79
2019-01-24T00:08:31.781Z,1000.87
2019-01-24T00:09:31.770Z,1000.78
2019-01-24T00:10:31.758Z,1000.89
2019-01-24T00:11:31.747Z,1000.84
2019-01-24T00:12:31.736Z,1000.87
2019-01-24T00:13:31.735Z,1000.85
2019-01-24T00:14:31.714Z,1000.86
2019-01-24T00:15:31.704Z,1000.88
2019-01-24T00:16:31.690Z,1000.89
2019-01-24T00:17:31.686Z,1000.97
2019-01-24T00:18:31.750Z,1000.94
2019-01-24T00:19:31.657Z,1000.95
2019-01-24T00:20:31.647Z,1000.96
2019-01-24T00:21:31.638Z,1000.96
2019-01-24T00:22:31.626Z,1001.01
2019-01-24T00:23:31.627Z,1000.97
2019-01-24T00:24:31.602Z,1001.00
2019-01-24T00:25:31.590Z,1001.05
2019-01-24T00:26:31.580Z,1001.04
2019-01-24T00:27:31.571Z,1001.04
2019-01-24T00:28:31.567Z,1001.03
2019-01-24T00:29:31.548Z,1001.04
2019-01-24T00:30:31.534Z,1001.05
2019-01-24T00:31:31.523Z,1001.09
2019-01-24T00:32:31.514Z,1001.10
2019-01-24T00:33:31.512Z,1001.13
2019-01-24T00:34:31.490Z,1001.18
2019-01-24T00:35:31.480Z,1001.09
2019-01-24T00:36:31.469Z,1001.11
2019-01-24T00:37:31.458Z,1001.17
2019-01-24T00:38:31.456Z,1001.11
2019-01-24T00:39:31.435Z,1001.13
2019-01-24T00:40:31.426Z,1001.13
2019-01-24T00:41:31.413Z,1001.17
2019-01-24T00:42:31.407Z,1001.15
2019-01-24T00:43:31.397Z,1001.16
2019-01-24T00:44:31.391Z,1001.17
2019-01-24T00:45:31.372Z,1001.17
2019-01-24T00:46:31.360Z,1001.20
2019-01-24T00:47:31.350Z,1001.21
2019-01-24T00:48:31.339Z,1001.22
2019-01-24T00:49:31.336Z,1001.24
2019-01-24T00:50:31.316Z,1001.25
2019-01-24T00:51:31.309Z,1001.23
2019-01-24T00:52:31.294Z,1001.18
2019-01-24T00:53:31.284Z,1001.25
2019-01-24T00:54:31.282Z,1001.29
2019-01-24T00:55:31.265Z,1001.20
2019-01-24T00:56:31.252Z,1001.27
2019-01-24T00:57:31.242Z,1001.24
2019-01-24T00:58:31.229Z,1001.30
2019-01-24T00:59:31.234Z,1001.26
2019-01-24T01:00:31.211Z,1001.28
2019-01-24T01:01:31.199Z,1001.28
2019-01-24T01:02:31.193Z,1001.28
2019-01-24T01:03:31.175Z,1001.29
2019-01-24T01:04:31.164Z,1001.28
2019-01-24T01:05:31.162Z,1001.33
2019-01-24T01:06:31.146Z,1001.28
2019-01-24T01:07:31.133Z,1001.35
2019-01-24T01:08:31.120Z,1001.44
2019-01-24T01:09:31.109Z,1001.38
2019-01-24T01:10:31.109Z,1001.46
2019-01-24T01:11:31.088Z,1001.47
2019-01-24T01:12:31.079Z,1001.42
2019-01-24T01:13:31.066Z,1001.45
2019-01-24T01:14:31.059Z,1001.44
2019-01-24T01:15:31.055Z,1001.47
2019-01-24T01:16:31.032Z,1001.49
2019-01-24T01:17:31.025Z,1001.50
2019-01-24T01:18:31.011Z,1001.52
2019-01-24T01:19:31.006Z,1001.59
2019-01-24T01:20:30.999Z,1001.56
2019-01-24T01:21:30.977Z,1001.55
2019-01-24T01:22:30.965Z,1001.58
2019-01-24T01:23:30.954Z,1001.60
2019-01-24T01:24:30.943Z,1001.63
2019-01-24T01:25:31.041Z,1001.64
2019-01-24T01:26:30.924Z,1001.64
2019-01-24T01:27:30.912Z,1001.64
2019-01-24T01:28:30.899Z,1001.62
2019-01-24T01:29:30.890Z,1001.66
2019-01-24T01:30:30.876Z,1001.61
2019-01-24T01:31:30.875Z,1001.62
2019-01-24T01:32:30.856Z,1001.62
2019-01-24T01:33:30.845Z,1001.66
2019-01-24T01:34:36.175Z,1001.69
2019-01-24T01:35:31.820Z,1001.68
2019-01-24T01:36:30.819Z,1001.72
2019-01-24T01:37:30.805Z,1001.68
2019-01-24T01:38:30.789Z,1001.70
2019-01-24T01:39:30.778Z,1001.69
2019-01-24T01:40:30.765Z,1001.79
2019-01-24T01:41:30.763Z,1001.77
2019-01-24T01:42:30.743Z,1001.76
2019-01-24T01:43:30.733Z,1001.80
2019-01-24T01:44:30.721Z,1001.78
2019-01-24T01:45:30.708Z,1001.80
2019-01-24T01:46:30.706Z,1001.82
2019-01-24T01:47:30.686Z,1001.86
2019-01-24T01:48:30.676Z,1001.84
2019-01-24T01:49:30.667Z,1001.85
2019-01-24T01:50:30.653Z,1001.84
2019-01-24T01:51:30.652Z,1001.85
2019-01-24T01:52:30.633Z,1001.84
2019-01-24T01:53:30.621Z,1001.80
2019-01-24T01:54:30.609Z,1001.84
2019-01-24T01:55:30.600Z,1001.83
2019-01-24T01:56:30.599Z,1001.91
2019-01-24T01:57:30.575Z,1001.91
2019-01-24T01:58:30.565Z,1001.91
2019-01-24T01:59:30.553Z,1001.97
2019-01-24T02:00:30.543Z,1001.94
2019-01-24T02:01:30.533Z,1001.98
2019-01-24T02:02:30.530Z,1001.97
2019-01-24T02:03:30.510Z,1001.98
2019-01-24T02:04:30.501Z,1002.01
2019-01-24T02:05:30.487Z,1001.99
2019-01-24T02:06:30.477Z,1002.02
2019-01-24T02:07:30.475Z,1001.97
2019-01-24T02:08:30.454Z,1001.98
2019-01-24T02:09:30.441Z,1001.99
2019-01-24T02:10:30.431Z,1001.98
2019-01-24T02:11:30.421Z,1001.99
2019-01-24T02:12:30.416Z,1001.97
2019-01-24T02:13:30.399Z,1002.03
2019-01-24T02:14:30.391Z,1002.07
2019-01-24T02:15:30.377Z,1002.06
2019-01-24T02:16:30.364Z,1002.08
2019-01-24T02:17:30.372Z,1002.09
2019-01-24T02:18:30.341Z,1002.08
2019-01-24T02:19:30.330Z,1002.09
2019-01-24T02:20:30.321Z,1002.09
2019-01-24T02:21:30.307Z,1002.08
2019-01-24T02:22:30.296Z,1002.10
2019-01-24T02:23:30.294Z,1002.09
2019-01-24T02:24:30.276Z,1002.07
2019-01-24T02:25:30.263Z,1002.12
2019-01-24T02:26:30.253Z,1002.09
2019-01-24T02:27:30.243Z,1002.15
2019-01-24T02:28:30.243Z,1002.09
2019-01-24T02:29:30.220Z,1002.14
2019-01-24T02:30:30.213Z,1002.13
2019-01-24T02:31:30.196Z,1002.16
2019-01-24T02:32:30.185Z,1002.13
2019-01-24T02:33:30.189Z,1002.17
2019-01-24T02:34:30.163Z,1002.19
2019-01-24T02:35:30.151Z,1002.16
2019-01-24T02:36:30.142Z,1002.20
2019-01-24T02:37:30.132Z,1002.18
2019-01-24T02:38:30.119Z,1002.15
2019-01-24T02:39:30.119Z,1002.25
2019-01-24T02:40:30.098Z,1002.17
2019-01-24T02:41:30.085Z,1002.18
2019-01-24T02:42:30.075Z,1002.19
2019-01-24T02:43:30.063Z,1002.19
2019-01-24T02:44:30.062Z,1002.25
2019-01-24T02:45:30.041Z,1002.25
2019-01-24T02:46:30.032Z,1002.22
2019-01-24T02:47:30.019Z,1002.20
2019-01-24T02:48:30.007Z,1002.26
2019-01-24T02:49:30.007Z,1002.19
2019-01-24T02:50:29.985Z,1002.21
2019-01-24T02:51:29.977Z,1002.19
2019-01-24T02:52:29.963Z,1002.21
2019-01-24T02:53:29.950Z,1002.24
2019-01-24T02:54:29.949Z,1002.19
2019-01-24T02:55:29.930Z,1002.20
2019-01-24T02:56:29.917Z,1002.20
2019-01-24T02:57:29.906Z,1002.20
2019-01-24T02:58:29.897Z,1002.20
2019-01-24T02:59:29.893Z,1002.16
2019-01-24T03:00:29.873Z,1002.23
2019-01-24T03:01:29.863Z,1002.20
2019-01-24T03:02:29.852Z,1002.26
2019-01-24T03:03:29.841Z,1002.24
2019-01-24T03:04:29.843Z,1002.23
2019-01-24T03:05:29.818Z,1002.21
2019-01-24T03:06:29.805Z,1002.25
2019-01-24T03:07:29.799Z,1002.29
2019-01-24T03:08:29.790Z,1002.29
2019-01-24T03:09:29.772Z,1002.33
2019-01-24T03:10:29.772Z,1002.29
2019-01-24T03:11:29.751Z,1002.34
2019-01-24T03:12:29.738Z,1002.32
2019-01-24T03:13:29.730Z,1002.31
2019-01-24T03:14:29.716Z,1002.33
2019-01-24T03:15:29.717Z,1002.38
2019-01-24T03:16:29.696Z,1002.37
2019-01-24T03:17:29.684Z,1002.33
2019-01-24T03:18:29.677Z,1002.33
2019-01-24T03:19:29.662Z,1002.29
2019-01-24T03:20:29.659Z,1002.33
2019-01-24T03:21:29.640Z,1002.32
2019-01-24T03:22:29.628Z,1002.35
2019-01-24T03:23:29.616Z,1002.31
2019-01-24T03:24:29.605Z,1002.32
2019-01-24T03:25:29.605Z,1002.28
2019-01-24T03:26:29.583Z,1002.30
2019-01-24T03:27:29.571Z,1002.29
2019-01-24T03:28:29.561Z,1002.22
2019-01-24T03:29:29.550Z,1002.28
2019-01-24T03:30:29.556Z,1002.31
2019-01-24T03:31:29.530Z,1002.27
2019-01-24T03:32:29.522Z,1002.28
2019-01-24T03:33:29.505Z,1002.29
2019-01-24T03:34:29.494Z,1002.29
2019-01-24T03:35:29.482Z,1002.31
2019-01-24T03:36:29.486Z,1002.29
2019-01-24T03:37:29.460Z,1002.31
2019-01-24T03:38:29.453Z,1002.27
2019-01-24T03:39:29.438Z,1002.33
2019-01-24T03:40:29.430Z,1002.28
2019-01-24T03:41:29.428Z,1002.30
2019-01-24T03:42:29.405Z,1002.30
2019-01-24T03:43:29.393Z,1002.31
2019-01-24T03:44:29.385Z,1002.27
2019-01-24T03:45:29.372Z,1002.29
2019-01-24T03:46:29.377Z,1002.30
2019-01-24T03:47:29.350Z,1002.28
2019-01-24T03:48:29.345Z,1002.26
2019-01-24T03:49:29.326Z,1002.26
2019-01-24T03:50:29.316Z,1002.29
2019-01-24T03:51:29.306Z,1002.34
2019-01-24T03:52:29.303Z,1002.38
2019-01-24T03:53:29.286Z,1002.39
2019-01-24T03:54:29.273Z,1002.44
2019-01-24T03:55:29.260Z,1002.42
2019-01-24T03:56:29.249Z,1002.35
2019-01-24T03:57:29.248Z,1002.37
2019-01-24T03:58:29.227Z,1002.36
2019-01-24T03:59:29.217Z,1002.42
2019-01-24T04:00:29.205Z,1002.40
2019-01-24T04:01:29.193Z,1002.40
2019-01-24T04:02:29.195Z,1002.41
2019-01-24T04:03:29.176Z,1002.43
2019-01-24T04:04:29.160Z,1002.47
2019-01-24T04:05:29.150Z,1002.48
2019-01-24T04:06:29.138Z,1002.49
2019-01-24T04:07:29.134Z,1002.49
2019-01-24T04:08:29.116Z,1002.50
2019-01-24T04:09:29.110Z,1002.45
2019-01-24T04:10:29.092Z,1002.46
2019-01-24T04:11:29.081Z,1002.48
2019-01-24T04:12:29.079Z,1002.48
2019-01-24T04:13:29.059Z,1002.46
2019-01-24T04:14:29.053Z,1002.49
2019-01-24T04:15:29.039Z,1002.52
2019-01-24T04:16:29.028Z,1002.51
2019-01-24T04:17:29.023Z,1002.50
2019-01-24T04:18:29.004Z,1002.46
2019-01-24T04:19:28.994Z,1002.56
2019-01-24T04:20:28.983Z,1002.62
2019-01-24T04:21:28.971Z,1002.57
2019-01-24T04:22:28.972Z,1002.60
2019-01-24T04:23:28.948Z,1002.52
2019-01-24T04:24:28.937Z,1002.54
2019-01-24T04:25:28.929Z,1002.60
2019-01-24T04:26:28.914Z,1002.62
2019-01-24T04:27:28.904Z,1002.64
2019-01-24T04:28:28.902Z,1002.59
2019-01-24T04:29:28.881Z,1002.63
2019-01-24T04:30:28.874Z,1002.68
2019-01-24T04:31:28.859Z,1002.65
2019-01-24T04:32:28.851Z,1002.71
2019-01-24T04:33:28.846Z,1002.71
2019-01-24T04:34:28.825Z,1002.73
2019-01-24T04:35:28.818Z,1002.73
2019-01-24T04:36:28.806Z,1002.82
2019-01-24T04:37:28.794Z,1002.75
2019-01-24T04:38:28.789Z,1002.82
2019-01-24T04:39:28.770Z,1002.82
2019-01-24T04:40:28.759Z,1002.82
2019-01-24T04:41:28.750Z,1002.82
2019-01-24T04:42:28.738Z,1002.86
2019-01-24T04:43:28.735Z,1002.86
2019-01-24T04:44:28.715Z,1002.88
2019-01-24T04:45:28.706Z,1002.88
2019-01-24T04:46:28.693Z,1002.91
2019-01-24T04:47:28.682Z,1002.90
2019-01-24T04:48:28.680Z,1002.91
2019-01-24T04:49:28.660Z,1002.89
2019-01-24T04:50:28.648Z,1002.93
2019-01-24T04:51:28.636Z,1002.90
2019-01-24T04:52:28.626Z,1002.92
2019-01-24T04:53:28.625Z,1002.91
2019-01-24T04:54:28.607Z,1002.89
2019-01-24T04:55:28.593Z,1002.91
2019-01-24T04:56:28.583Z,1002.90
2019-01-24T04:57:28.571Z,1002.97
2019-01-24T04:58:28.573Z,1002.94
2019-01-24T04:59:28.548Z,1003.05
2019-01-24T05:00:28.542Z,1003.03
2019-01-24T05:01:28.525Z,1002.97
2019-01-24T05:02:28.516Z,1002.99
2019-01-24T05:03:28.503Z,1003.03
2019-01-24T05:04:28.500Z,1003.03
2019-01-24T05:05:28.486Z,1003.04
2019-01-24T05:06:28.473Z,1003.02
2019-01-24T05:07:28.458Z,1003.03
2019-01-24T05:08:28.451Z,1003.00
2019-01-24T05:09:28.448Z,1003.06
2019-01-24T05:10:28.426Z,1003.07
2019-01-24T05:11:28.418Z,1003.13
2019-01-24T05:12:28.404Z,1003.15
2019-01-24T05:13:28.393Z,1003.17
2019-01-24T05:14:28.380Z,1003.18
2019-01-24T05:15:28.378Z,1003.16
2019-01-24T05:16:28.358Z,1003.17
2019-01-24T05:17:28.349Z,1003.26
2019-01-24T05:18:28.355Z,1003.24
2019-01-24T05:19:28.323Z,1003.25
2019-01-24T05:20:28.322Z,1003.24
2019-01-24T05:21:28.303Z,1003.27
2019-01-24T05:22:28.293Z,1003.26
2019-01-24T05:23:28.279Z,1003.27
2019-01-24T05:24:28.270Z,1003.28
2019-01-24T05:25:28.271Z,1003.25
2019-01-24T05:26:28.247Z,1003.26
2019-01-24T05:27:28.234Z,1003.33
2019-01-24T05:28:28.224Z,1003.32
2019-01-24T05:29:28.214Z,1003.29
2019-01-24T05:30:28.202Z,1003.32
2019-01-24T05:31:28.200Z,1003.32
2019-01-24T05:32:28.180Z,1003.32
2019-01-24T05:33:28.167Z,1003.34
2019-01-24T05:34:28.156Z,1003.36
2019-01-24T05:35:34.474Z,1003.35
2019-01-24T05:36:29.144Z,1003.34
2019-01-24T05:37:28.123Z,1003.40
2019-01-24T05:38:28.113Z,1003.39
2019-01-24T05:39:28.103Z,1003.36
2019-01-24T05:40:28.091Z,1003.41
2019-01-24T05:41:28.091Z,1003.39
2019-01-24T05:42:28.068Z,1003.43
2019-01-24T05:43:28.056Z,1003.43
2019-01-24T05:44:28.046Z,1003.43
2019-01-24T05:45:28.035Z,1003.38
2019-01-24T05:46:28.036Z,1003.42
2019-01-24T05:47:28.011Z,1003.51
2019-01-24T05:48:28.004Z,1003.54
2019-01-24T05:49:27.991Z,1003.47
2019-01-24T05:50:27.980Z,1003.54
2019-01-24T05:51:27.969Z,1003.55
2019-01-24T05:52:27.969Z,1003.53
2019-01-24T05:53:27.944Z,1003.55
2019-01-24T05:54:27.935Z,1003.48
2019-01-24T05:55:27.922Z,1003.53
2019-01-24T05:56:27.913Z,1003.50
2019-01-24T05:57:27.911Z,1003.49
2019-01-24T05:58:27.889Z,1003.51
2019-01-24T05:59:27.878Z,1003.51
2019-01-24T06:00:27.866Z,1003.55
2019-01-24T06:01:27.856Z,1003.49
2019-01-24T06:02:27.859Z,1003.51
2019-01-24T06:03:27.832Z,1003.49
2019-01-24T06:04:27.823Z,1003.50
2019-01-24T06:05:27.811Z,1003.52
2019-01-24T06:06:27.798Z,1003.54
2019-01-24T06:07:27.789Z,1003.53
2019-01-24T06:08:27.789Z,1003.45
2019-01-24T06:09:27.766Z,1003.50
2019-01-24T06:10:27.759Z,1003.48
2019-01-24T06:11:27.743Z,1003.44
2019-01-24T06:12:27.734Z,1003.53
2019-01-24T06:13:27.731Z,1003.53
2019-01-24T06:14:27.713Z,1003.54
2019-01-24T06:15:27.701Z,1003.47
2019-01-24T06:16:27.692Z,1003.53
2019-01-24T06:17:27.678Z,1003.47
2019-01-24T06:18:27.675Z,1003.43
2019-01-24T06:19:27.657Z,1003.43
2019-01-24T06:20:27.644Z,1003.44
2019-01-24T06:21:27.637Z,1003.46
2019-01-24T06:22:27.623Z,1003.50
2019-01-24T06:23:27.625Z,1003.53
2019-01-24T06:24:27.601Z,1003.52
2019-01-24T06:25:27.588Z,1003.57
2019-01-24T06:26:27.577Z,1003.57
2019-01-24T06:27:27.570Z,1003.64
2019-01-24T06:28:27.567Z,1003.55
2019-01-24T06:29:27.545Z,1003.56
2019-01-24T06:30:27.532Z,1003.59
2019-01-24T06:31:27.522Z,1003.57
2019-01-24T06:32:27.511Z,1003.59
2019-01-24T06:33:27.513Z,1003.64
2019-01-24T06:34:27.488Z,1003.66
2019-01-24T06:35:27.483Z,1003.66
2019-01-24T06:36:27.466Z,1003.64
2019-01-24T06:37:27.456Z,1003.61
2019-01-24T06:38:27.445Z,1003.67
2019-01-24T06:39:27.441Z,1003.68
2019-01-24T06:40:27.421Z,1003.70
2019-01-24T06:41:27.410Z,1003.73
2019-01-24T06:42:27.401Z,1003.75
2019-01-24T06:43:27.390Z,1003.74
2019-01-24T06:44:27.387Z,1003.75
2019-01-24T06:45:27.367Z,1003.81
2019-01-24T06:46:27.355Z,1003.79
2019-01-24T06:47:27.344Z,1003.81
2019-01-24T06:48:27.334Z,1003.81
2019-01-24T06:49:27.330Z,1003.82
2019-01-24T06:50:27.313Z,1003.76
2019-01-24T06:51:27.301Z,1003.73
2019-01-24T06:52:27.289Z,1003.66
2019-01-24T06:53:27.278Z,1003.71
2019-01-24T06:54:27.279Z,1003.75
2019-01-24T06:55:27.255Z,1003.73
2019-01-24T06:56:27.249Z,1003.77
2019-01-24T06:57:27.234Z,1003.78
2019-01-24T06:58:27.222Z,1003.83
2019-01-24T06:59:27.213Z,1003.82
2019-01-24T07:00:27.215Z,1003.84
2019-01-24T07:01:27.190Z,1003.79
2019-01-24T07:02:27.178Z,1003.85
2019-01-24T07:03:27.170Z,1003.84
2019-01-24T07:04:27.158Z,1003.89
2019-01-24T07:05:27.154Z,1003.97
2019-01-24T07:06:27.134Z,1003.93
2019-01-24T07:07:27.126Z,1003.93
2019-01-24T07:08:27.112Z,1004.01
2019-01-24T07:09:27.102Z,1004.04
2019-01-24T07:10:27.097Z,1004.02
2019-01-24T07:11:27.078Z,1004.01
2019-01-24T07:12:27.067Z,1004.05
2019-01-24T07:13:27.057Z,1004.08
2019-01-24T07:14:27.045Z,1004.10
2019-01-24T07:15:27.051Z,1004.05
2019-01-24T07:16:27.025Z,1004.08
2019-01-24T07:17:27.012Z,1004.02
2019-01-24T07:18:27.000Z,1004.05
2019-01-24T07:19:26.990Z,1004.08
2019-01-24T07:20:26.979Z,1004.17
2019-01-24T07:21:26.977Z,1004.16
2019-01-24T07:22:26.956Z,1004.23
2019-01-24T07:23:26.946Z,1004.18
2019-01-24T07:24:26.934Z,1004.21
2019-01-24T07:25:26.922Z,1004.23
2019-01-24T07:26:26.921Z,1004.25
2019-01-24T07:27:26.901Z,1004.27
2019-01-24T07:28:26.893Z,1004.32
2019-01-24T07:29:26.877Z,1004.36
2019-01-24T07:30:26.867Z,1004.30
2019-01-24T07:31:26.868Z,1004.32
2019-01-24T07:32:26.846Z,1004.35
2019-01-24T07:33:26.832Z,1004.30
2019-01-24T07:34:26.827Z,1004.43
2019-01-24T07:35:26.811Z,1004.35
2019-01-24T07:36:26.811Z,1004.47
2019-01-24T07:37:26.787Z,1004.49
2019-01-24T07:38:26.780Z,1004.49
2019-01-24T07:39:26.764Z,1004.43
2019-01-24T07:40:26.756Z,1004.46
2019-01-24T07:41:26.743Z,1004.48
2019-01-24T07:42:26.739Z,1004.50
2019-01-24T07:43:26.722Z,1004.54
2019-01-24T07:44:26.709Z,1004.56
2019-01-24T07:45:26.697Z,1004.55
2019-01-24T07:46:26.686Z,1004.58
2019-01-24T07:47:26.683Z,1004.62
2019-01-24T07:48:26.663Z,1004.65
2019-01-24T07:49:26.652Z,1004.63
2019-01-24T07:50:26.643Z,1004.68
2019-01-24T07:51:26.630Z,1004.74
2019-01-24T07:52:26.629Z,1004.70
2019-01-24T07:53:26.608Z,1004.70
2019-01-24T07:54:26.598Z,1004.71
2019-01-24T07:55:26.582Z,1004.73
2019-01-24T07:56:26.574Z,1004.73
2019-01-24T07:57:26.575Z,1004.78
2019-01-24T07:58:26.549Z,1004.75
2019-01-24T07:59:26.540Z,1004.80
2019-01-24T08:00:26.527Z,1004.75
2019-01-24T08:01:26.518Z,1004.75
2019-01-24T08:02:26.509Z,1004.80
2019-01-24T08:03:26.502Z,1004.81
2019-01-24T08:04:26.482Z,1004.82
2019-01-24T08:05:26.470Z,1004.81
2019-01-24T08:06:26.460Z,1004.85
2019-01-24T08:07:26.448Z,1004.86
2019-01-24T08:08:26.461Z,1004.79
2019-01-24T08:09:26.428Z,1004.86
2019-01-24T08:10:26.415Z,1004.83
2019-01-24T08:11:26.405Z,1004.80
2019-01-24T08:12:26.391Z,1004.83
2019-01-24T08:13:26.389Z,1004.84
2019-01-24T08:14:26.369Z,1004.89
2019-01-24T08:15:26.358Z,1004.87
2019-01-24T08:16:26.347Z,1004.91
2019-01-24T08:17:26.337Z,1004.93
2019-01-24T08:18:26.333Z,1004.97
2019-01-24T08:19:26.315Z,1004.94
2019-01-24T08:20:26.307Z,1005.03
2019-01-24T08:21:26.291Z,1005.00
2019-01-24T08:22:26.280Z,1005.00
2019-01-24T08:23:26.277Z,1005.03
2019-01-24T08:24:26.259Z,1005.03
2019-01-24T08:25:26.286Z,1005.03
2019-01-24T08:26:26.234Z,1005.05
2019-01-24T08:27:26.223Z,1005.07
2019-01-24T08:28:26.223Z,1005.02
2019-01-24T08:29:26.204Z,1005.14
2019-01-24T08:30:26.189Z,1005.10
2019-01-24T08:31:26.178Z,1005.10
2019-01-24T08:32:26.169Z,1005.03
2019-01-24T08:33:26.168Z,1005.09
2019-01-24T08:34:26.149Z,1005.06
2019-01-24T08:35:26.134Z,1005.11
2019-01-24T08:36:26.122Z,1005.17
2019-01-24T08:37:26.110Z,1005.19
2019-01-24T08:38:26.099Z,1005.19
2019-01-24T08:39:26.097Z,1005.24
2019-01-24T08:40:26.081Z,1005.24
2019-01-24T08:41:26.068Z,1005.24
2019-01-24T08:42:26.053Z,1005.24
2019-01-24T08:43:26.042Z,1005.29
2019-01-24T08:44:26.042Z,1005.28
2019-01-24T08:45:26.020Z,1005.32
2019-01-24T08:46:26.013Z,1005.32
2019-01-24T08:47:25.998Z,1005.38
2019-01-24T08:48:25.989Z,1005.39
2019-01-24T08:49:25.990Z,1005.38
2019-01-24T08:50:25.966Z,1005.37
2019-01-24T08:51:25.955Z,1005.37
2019-01-24T08:52:25.963Z,1005.38
2019-01-24T08:53:25.964Z,1005.38
2019-01-24T08:54:25.922Z,1005.36
2019-01-24T08:55:25.919Z,1005.35
2019-01-24T08:56:25.899Z,1005.35
2019-01-24T08:57:25.887Z,1005.35
2019-01-24T08:58:25.877Z,1005.35
2019-01-24T08:59:29.473Z,1005.34
2019-01-24T09:00:25.863Z,1005.34
2019-01-24T09:01:25.846Z,1005.34
2019-01-24T09:02:25.834Z,1005.38
2019-01-24T09:03:25.822Z,1005.36
2019-01-24T09:04:25.812Z,1005.36
2019-01-24T09:05:25.808Z,1005.31
2019-01-24T09:06:25.789Z,1005.32
2019-01-24T09:07:25.778Z,1005.37
2019-01-24T09:08:25.767Z,1005.38
2019-01-24T09:09:25.761Z,1005.38
2019-01-24T09:10:25.759Z,1005.37
2019-01-24T09:11:25.737Z,1005.37
2019-01-24T09:12:30.223Z,1005.36
2019-01-24T09:13:25.713Z,1005.37
2019-01-24T09:14:25.717Z,1005.37
2019-01-24T09:15:25.692Z,1005.38
2019-01-24T09:16:25.686Z,1005.43
2019-01-24T09:17:25.671Z,1005.45
2019-01-24T09:18:25.655Z,1005.46
2019-01-24T09:19:25.644Z,1005.46
2019-01-24T09:20:25.636Z,1005.53
2019-01-24T09:21:25.632Z,1005.45
2019-01-24T09:22:25.613Z,1005.47
2019-01-24T09:23:25.601Z,1005.51
2019-01-24T09:24:25.590Z,1005.45
2019-01-24T09:25:25.580Z,1005.46
2019-01-24T09:26:25.575Z,1005.50
2019-01-24T09:27:25.559Z,1005.50
2019-01-24T09:28:25.548Z,1005.53
2019-01-24T09:29:25.534Z,1005.55
2019-01-24T09:30:25.535Z,1005.50
2019-01-24T09:31:25.527Z,1005.50
2019-01-24T09:32:25.503Z,1005.50
2019-01-24T09:33:25.491Z,1005.54
2019-01-24T09:34:25.503Z,1005.54
2019-01-24T09:35:25.467Z,1005.53
2019-01-24T09:36:29.186Z,1005.56
2019-01-24T09:37:25.454Z,1005.60
2019-01-24T09:38:25.434Z,1005.57
2019-01-24T09:39:25.425Z,1005.56
2019-01-24T09:40:25.417Z,1005.56
2019-01-24T09:41:25.403Z,1005.57
2019-01-24T09:42:25.399Z,1005.58
2019-01-24T09:43:25.381Z,1005.52
2019-01-24T09:44:25.370Z,1005.59
2019-01-24T09:45:25.359Z,1005.59
2019-01-24T09:46:25.350Z,1005.60
2019-01-24T09:47:25.343Z,1005.58
2019-01-24T09:48:25.326Z,1005.57
2019-01-24T09:49:25.313Z,1005.57
2019-01-24T09:50:25.302Z,1005.52
2019-01-24T09:51:25.292Z,1005.58
2019-01-24T09:52:25.293Z,1005.53
2019-01-24T09:53:25.270Z,1005.64
2019-01-24T09:54:25.257Z,1005.64
2019-01-24T09:55:25.246Z,1005.62
2019-01-24T09:56:25.234Z,1005.59
2019-01-24T09:57:25.224Z,1005.57
2019-01-24T09:58:25.223Z,1005.57
2019-01-24T09:59:25.203Z,1005.61
2019-01-24T10:00:25.195Z,1005.59
2019-01-24T10:01:25.179Z,1005.61
2019-01-24T10:02:25.168Z,1005.55
2019-01-24T10:03:25.168Z,1005.59
2019-01-24T10:04:25.149Z,1005.66
2019-01-24T10:05:25.135Z,1005.66
2019-01-24T10:06:25.126Z,1005.67
2019-01-24T10:07:25.115Z,1005.72
2019-01-24T10:08:25.111Z,1005.69
2019-01-24T10:09:25.092Z,1005.69
2019-01-24T10:10:25.081Z,1005.72
2019-01-24T10:11:25.073Z,1005.74
2019-01-24T10:12:25.061Z,1005.70
2019-01-24T10:13:25.057Z,1005.74
2019-01-24T10:14:25.038Z,1005.74
2019-01-24T10:15:25.028Z,1005.73
2019-01-24T10:16:25.013Z,1005.75
2019-01-24T10:17:25.005Z,1005.72
2019-01-24T10:18:25.001Z,1005.77
2019-01-24T10:19:24.981Z,1005.78
2019-01-24T10:20:24.969Z,1005.77
2019-01-24T10:21:24.959Z,1005.80
2019-01-24T10:22:24.948Z,1005.80
2019-01-24T10:23:24.952Z,1005.78
2019-01-24T10:24:24.928Z,1005.83
2019-01-24T10:25:24.914Z,1005.86
2019-01-24T10:26:24.904Z,1005.91
2019-01-24T10:27:24.892Z,1005.88
2019-01-24T10:28:24.880Z,1005.79
2019-01-24T10:29:24.879Z,1005.85
2019-01-24T10:30:24.858Z,1005.80
2019-01-24T10:31:24.848Z,1005.76
2019-01-24T10:32:24.841Z,1005.78
2019-01-24T10:33:24.825Z,1005.73
2019-01-24T10:34:24.823Z,1005.76
2019-01-24T10:35:24.807Z,1005.80
2019-01-24T10:36:24.802Z,1005.73
2019-01-24T10:37:24.783Z,1005.73
2019-01-24T10:38:24.772Z,1005.87
2019-01-24T10:39:24.767Z,1005.82
2019-01-24T10:40:24.750Z,1005.87
2019-01-24T10:41:24.741Z,1005.83
2019-01-24T10:42:24.728Z,1005.87
2019-01-24T10:43:24.714Z,1005.89
2019-01-24T10:44:24.717Z,1005.86
2019-01-24T10:45:24.694Z,1005.88
2019-01-24T10:46:24.682Z,1005.85
2019-01-24T10:47:24.670Z,1005.88
2019-01-24T10:48:24.659Z,1005.88
2019-01-24T10:49:24.664Z,1005.90
2019-01-24T10:50:24.637Z,1005.88
2019-01-24T10:51:24.627Z,1005.86
2019-01-24T10:52:24.618Z,1005.91
2019-01-24T10:53:24.610Z,1005.90
2019-01-24T10:54:24.593Z,1005.89
2019-01-24T10:55:24.591Z,1005.88
2019-01-24T10:56:24.570Z,1005.92
2019-01-24T10:57:24.561Z,1005.88
2019-01-24T10:58:24.548Z,1005.85
2019-01-24T10:59:24.539Z,1005.86
2019-01-24T11:00:24.542Z,1005.86
2019-01-24T11:01:24.515Z,1005.85
2019-01-24T11:02:24.504Z,1005.78
2019-01-24T11:03:24.497Z,1005.84
2019-01-24T11:04:24.484Z,1005.82
2019-01-24T11:05:24.479Z,1005.83
2019-01-24T11:06:24.459Z,1005.79
2019-01-24T11:07:24.449Z,1005.84
2019-01-24T11:08:24.447Z,1005.84
2019-01-24T11:09:24.428Z,1005.88
2019-01-24T11:10:24.417Z,1005.85
2019-01-24T11:11:24.414Z,1005.89
2019-01-24T11:12:24.393Z,1005.91
2019-01-24T11:13:24.382Z,1005.92
2019-01-24T11:14:24.371Z,1005.90
2019-01-24T11:15:24.360Z,1005.92
2019-01-24T11:16:24.359Z,1005.95
2019-01-24T11:17:24.337Z,1005.97
2019-01-24T11:18:24.333Z,1005.92
2019-01-24T11:19:24.316Z,1005.91
2019-01-24T11:20:24.304Z,1005.92
2019-01-24T11:21:24.302Z,1005.86
2019-01-24T11:22:24.284Z,1005.88
2019-01-24T11:23:24.272Z,1005.82
2019-01-24T11:24:24.261Z,1005.81
2019-01-24T11:25:24.251Z,1005.89
2019-01-24T11:26:24.254Z,1005.82
2019-01-24T11:27:24.229Z,1005.87
2019-01-24T11:28:24.217Z,1005.87
2019-01-24T11:29:24.209Z,1005.92
2019-01-24T11:30:24.194Z,1005.87
2019-01-24T11:31:24.185Z,1005.87
2019-01-24T11:32:24.188Z,1005.86
2019-01-24T11:33:24.161Z,1005.91
2019-01-24T11:34:24.150Z,1005.82
2019-01-24T11:35:24.139Z,1005.88
2019-01-24T11:36:24.132Z,1005.82
2019-01-24T11:37:24.130Z,1005.81
2019-01-24T11:38:24.106Z,1005.80
2019-01-24T11:39:24.094Z,1005.84
2019-01-24T11:40:24.085Z,1005.85
2019-01-24T11:41:24.075Z,1005.86
2019-01-24T11:42:24.072Z,1005.87
2019-01-24T11:43:24.051Z,1005.87
2019-01-24T11:44:24.040Z,1005.87
2019-01-24T11:45:24.029Z,1005.93
2019-01-24T11:46:24.017Z,1005.92
2019-01-24T11:47:24.015Z,1005.87
2019-01-24T11:48:23.997Z,1005.90
2019-01-24T11:49:23.984Z,1005.93
2019-01-24T11:50:23.975Z,1005.90
2019-01-24T11:51:23.963Z,1005.95
2019-01-24T11:52:23.964Z,1005.96
2019-01-24T11:53:23.943Z,1005.94
2019-01-24T11:54:23.932Z,1005.92
2019-01-24T11:55:23.923Z,1005.99
2019-01-24T11:56:23.908Z,1005.97
2019-01-24T11:57:23.896Z,1005.98
2019-01-24T11:58:23.893Z,1005.99
2019-01-24T11:59:23.885Z,1006.06
2019-01-24T12:00:23.864Z,1005.99
2019-01-24T12:01:23.851Z,1006.02
2019-01-24T12:02:23.840Z,1005.95
2019-01-24T12:03:23.837Z,1005.99
2019-01-24T12:04:23.824Z,1005.98
2019-01-24T12:05:23.807Z,1005.96